sensor_id;sensor_type;location;lat;lon;timestamp;temperature;humidity
2977;DHT22;1498;51.500;7.440;2023-01-26T00:02:02;2.60;99.90
2977;DHT22;1498;51.500;7.440;2023-01-26T00:04:27;2.60;99.90
2977;DHT22;1498;51.500;7.440;2023-01-26T00:06:53;2.60;99.90
2977;DHT22;1498;51.500;7.440;2023-01-26T00:09:18;2.60;99.90
2977;DHT22;1498;51.500;7.440;2023-01-26T00:11:44;2.60;99.90
2977;DHT22;1498;51.500;7.440;2023-01-26T00:14:09;2.70;99.90
2977;DHT22;1498;51.500;7.440;2023-01-26T00:16:35;2.60;99.90
2977;DHT22;1498;51.500;7.440;2023-01-26T00:19:01;2.50;99.90
2977;DHT22;1498;51.500;7.440;2023-01-26T00:21:27;2.40;99.90
2977;DHT22;1498;51.500;7.440;2023-01-26T00:23:52;2.40;99.90
2977;DHT22;1498;51.500;7.440;2023-01-26T00:26:21;2.50;99.90
2977;DHT22;1498;51.500;7.440;2023-01-26T00:28:47;2.50;99.90
2977;DHT22;1498;51.500;7.440;2023-01-26T00:31:24;2.50;99.90
2977;DHT22;1498;51.500;7.440;2023-01-26T00:33:51;2.40;99.90
2977;DHT22;1498;51.500;7.440;2023-01-26T00:36:17;2.30;99.90
2977;DHT22;1498;51.500;7.440;2023-01-26T00:38:43;2.40;99.90
2977;DHT22;1498;51.500;7.440;2023-01-26T00:41:09;2.60;99.90
2977;DHT22;1498;51.500;7.440;2023-01-26T00:43:55;2.50;99.90
2977;DHT22;1498;51.500;7.440;2023-01-26T00:46:20;2.40;99.90
2977;DHT22;1498;51.500;7.440;2023-01-26T00:48:46;2.40;99.90
2977;DHT22;1498;51.500;7.440;2023-01-26T00:51:11;2.30;99.90
2977;DHT22;1498;51.500;7.440;2023-01-26T00:53:37;2.40;99.90
2977;DHT22;1498;51.500;7.440;2023-01-26T00:56:02;2.20;99.90
2977;DHT22;1498;51.500;7.440;2023-01-26T00:58:28;2.20;99.90
2977;DHT22;1498;51.500;7.440;2023-01-26T01:00:53;2.20;99.90
2977;DHT22;1498;51.500;7.440;2023-01-26T01:03:19;2.20;99.90
2977;DHT22;1498;51.500;7.440;2023-01-26T01:05:44;2.10;99.90
2977;DHT22;1498;51.500;7.440;2023-01-26T01:08:10;2.10;99.90
2977;DHT22;1498;51.500;7.440;2023-01-26T01:10:35;2.20;99.90
2977;DHT22;1498;51.500;7.440;2023-01-26T01:13:01;2.30;99.90
2977;DHT22;1498;51.500;7.440;2023-01-26T01:15:26;2.20;99.90
2977;DHT22;1498;51.500;7.440;2023-01-26T01:17:52;2.20;99.90
2977;DHT22;1498;51.500;7.440;2023-01-26T01:20:17;2.20;99.90
2977;DHT22;1498;51.500;7.440;2023-01-26T01:22:43;2.20;99.90
2977;DHT22;1498;51.500;7.440;2023-01-26T01:25:09;2.30;99.90
2977;DHT22;1498;51.500;7.440;2023-01-26T01:27:34;2.20;99.90
2977;DHT22;1498;51.500;7.440;2023-01-26T01:30:00;2.20;99.90
2977;DHT22;1498;51.500;7.440;2023-01-26T01:32:26;2.20;99.90
2977;DHT22;1498;51.500;7.440;2023-01-26T01:34:51;2.10;99.90
2977;DHT22;1498;51.500;7.440;2023-01-26T01:37:17;2.10;99.90
2977;DHT22;1498;51.500;7.440;2023-01-26T01:39:42;2.10;99.90
2977;DHT22;1498;51.500;7.440;2023-01-26T01:42:08;2.10;99.90
2977;DHT22;1498;51.500;7.440;2023-01-26T01:44:35;2.10;99.90
2977;DHT22;1498;51.500;7.440;2023-01-26T01:47:21;2.10;99.90
2977;DHT22;1498;51.500;7.440;2023-01-26T01:49:51;2.10;99.90
2977;DHT22;1498;51.500;7.440;2023-01-26T01:52:30;2.10;99.90
2977;DHT22;1498;51.500;7.440;2023-01-26T01:55:04;2.10;99.90
2977;DHT22;1498;51.500;7.440;2023-01-26T01:57:39;2.10;99.90
2977;DHT22;1498;51.500;7.440;2023-01-26T02:00:15;2.10;99.90
2977;DHT22;1498;51.500;7.440;2023-01-26T02:02:43;2.20;99.90
2977;DHT22;1498;51.500;7.440;2023-01-26T02:05:32;2.20;99.90
2977;DHT22;1498;51.500;7.440;2023-01-26T02:08:01;2.20;99.90
2977;DHT22;1498;51.500;7.440;2023-01-26T02:10:27;2.20;99.90
2977;DHT22;1498;51.500;7.440;2023-01-26T02:12:57;2.20;99.90
2977;DHT22;1498;51.500;7.440;2023-01-26T02:15:25;2.30;99.90
2977;DHT22;1498;51.500;7.440;2023-01-26T02:17:52;2.30;99.90
2977;DHT22;1498;51.500;7.440;2023-01-26T02:28:21;2.20;99.90
2977;DHT22;1498;51.500;7.440;2023-01-26T02:30:48;2.30;99.90
2977;DHT22;1498;51.500;7.440;2023-01-26T02:33:17;2.30;99.90
2977;DHT22;1498;51.500;7.440;2023-01-26T02:35:43;2.30;99.90
2977;DHT22;1498;51.500;7.440;2023-01-26T02:38:08;2.30;99.90
2977;DHT22;1498;51.500;7.440;2023-01-26T02:40:46;2.30;99.90
2977;DHT22;1498;51.500;7.440;2023-01-26T02:43:13;2.30;99.90
2977;DHT22;1498;51.500;7.440;2023-01-26T02:45:39;2.30;99.90
2977;DHT22;1498;51.500;7.440;2023-01-26T02:48:05;2.30;99.90
2977;DHT22;1498;51.500;7.440;2023-01-26T02:50:32;2.40;99.90
2977;DHT22;1498;51.500;7.440;2023-01-26T02:52:58;2.30;99.90
2977;DHT22;1498;51.500;7.440;2023-01-26T02:55:24;2.20;99.90
2977;DHT22;1498;51.500;7.440;2023-01-26T02:58:02;2.30;99.90
2977;DHT22;1498;51.500;7.440;2023-01-26T03:00:31;2.30;99.90
2977;DHT22;1498;51.500;7.440;2023-01-26T03:02:59;2.20;99.90
2977;DHT22;1498;51.500;7.440;2023-01-26T03:05:31;2.20;99.90
2977;DHT22;1498;51.500;7.440;2023-01-26T03:07:56;2.20;99.90
2977;DHT22;1498;51.500;7.440;2023-01-26T03:10:22;2.30;99.90
2977;DHT22;1498;51.500;7.440;2023-01-26T03:12:49;2.30;99.90
2977;DHT22;1498;51.500;7.440;2023-01-26T03:15:15;2.30;99.90
2977;DHT22;1498;51.500;7.440;2023-01-26T03:18:04;2.40;99.90
2977;DHT22;1498;51.500;7.440;2023-01-26T03:20:49;2.40;99.90
2977;DHT22;1498;51.500;7.440;2023-01-26T03:23:33;2.40;99.90
2977;DHT22;1498;51.500;7.440;2023-01-26T03:26:17;2.40;99.90
2977;DHT22;1498;51.500;7.440;2023-01-26T03:29:01;2.50;99.90
2977;DHT22;1498;51.500;7.440;2023-01-26T03:31:26;2.50;99.90
2977;DHT22;1498;51.500;7.440;2023-01-26T03:33:52;2.50;99.90
2977;DHT22;1498;51.500;7.440;2023-01-26T03:36:17;2.40;99.90
2977;DHT22;1498;51.500;7.440;2023-01-26T03:38:43;2.50;99.90
2977;DHT22;1498;51.500;7.440;2023-01-26T05:33:07;2.60;99.90
2977;DHT22;1498;51.500;7.440;2023-01-26T05:35:34;2.60;99.90
2977;DHT22;1498;51.500;7.440;2023-01-26T05:38:00;2.60;99.90
2977;DHT22;1498;51.500;7.440;2023-01-26T05:40:26;2.60;99.90
2977;DHT22;1498;51.500;7.440;2023-01-26T05:42:52;2.60;99.90
2977;DHT22;1498;51.500;7.440;2023-01-26T05:45:18;2.60;99.90
2977;DHT22;1498;51.500;7.440;2023-01-26T05:47:45;2.70;99.90
2977;DHT22;1498;51.500;7.440;2023-01-26T05:50:11;2.70;99.90
2977;DHT22;1498;51.500;7.440;2023-01-26T05:52:37;2.60;99.90
2977;DHT22;1498;51.500;7.440;2023-01-26T05:55:04;2.70;99.90
2977;DHT22;1498;51.500;7.440;2023-01-26T05:57:30;2.60;99.90
2977;DHT22;1498;51.500;7.440;2023-01-26T05:59:56;2.70;99.90
2977;DHT22;1498;51.500;7.440;2023-01-26T06:02:22;2.70;99.90
2977;DHT22;1498;51.500;7.440;2023-01-26T06:04:48;2.70;99.90
2977;DHT22;1498;51.500;7.440;2023-01-26T06:07:13;2.70;99.90
2977;DHT22;1498;51.500;7.440;2023-01-26T06:09:40;2.70;99.90
2977;DHT22;1498;51.500;7.440;2023-01-26T06:12:09;2.70;99.90
2977;DHT22;1498;51.500;7.440;2023-01-26T06:14:36;2.70;99.90
2977;DHT22;1498;51.500;7.440;2023-01-26T06:17:02;2.80;99.90
2977;DHT22;1498;51.500;7.440;2023-01-26T06:19:27;2.70;99.90
2977;DHT22;1498;51.500;7.440;2023-01-26T06:21:53;2.70;99.90
2977;DHT22;1498;51.500;7.440;2023-01-26T06:24:18;2.80;99.90
2977;DHT22;1498;51.500;7.440;2023-01-26T06:26:46;2.80;99.90
2977;DHT22;1498;51.500;7.440;2023-01-26T06:29:12;2.80;99.90
2977;DHT22;1498;51.500;7.440;2023-01-26T06:31:38;2.80;99.90
2977;DHT22;1498;51.500;7.440;2023-01-26T06:34:04;2.80;99.90
2977;DHT22;1498;51.500;7.440;2023-01-26T06:36:30;2.80;99.90
2977;DHT22;1498;51.500;7.440;2023-01-26T06:38:55;2.70;99.90
2977;DHT22;1498;51.500;7.440;2023-01-26T06:41:21;2.80;99.90
2977;DHT22;1498;51.500;7.440;2023-01-26T06:43:47;2.80;99.90
2977;DHT22;1498;51.500;7.440;2023-01-26T06:46:14;2.80;99.90
2977;DHT22;1498;51.500;7.440;2023-01-26T06:48:39;2.80;99.90
2977;DHT22;1498;51.500;7.440;2023-01-26T06:53:42;2.80;99.90
2977;DHT22;1498;51.500;7.440;2023-01-26T06:56:07;2.80;99.90
2977;DHT22;1498;51.500;7.440;2023-01-26T06:58:33;2.80;99.90
2977;DHT22;1498;51.500;7.440;2023-01-26T07:00:59;2.80;99.90
2977;DHT22;1498;51.500;7.440;2023-01-26T07:03:25;2.80;99.90
2977;DHT22;1498;51.500;7.440;2023-01-26T07:05:50;2.80;99.90
2977;DHT22;1498;51.500;7.440;2023-01-26T07:08:16;2.80;99.90
2977;DHT22;1498;51.500;7.440;2023-01-26T07:10:41;2.70;99.90
2977;DHT22;1498;51.500;7.440;2023-01-26T07:13:07;2.70;99.90
2977;DHT22;1498;51.500;7.440;2023-01-26T07:15:32;2.80;99.90
2977;DHT22;1498;51.500;7.440;2023-01-26T07:17:58;2.80;99.90
2977;DHT22;1498;51.500;7.440;2023-01-26T07:20:24;2.80;99.90
2977;DHT22;1498;51.500;7.440;2023-01-26T07:22:50;2.80;99.90
2977;DHT22;1498;51.500;7.440;2023-01-26T07:25:17;2.80;99.90
2977;DHT22;1498;51.500;7.440;2023-01-26T07:27:43;2.80;99.90
2977;DHT22;1498;51.500;7.440;2023-01-26T07:30:10;2.80;99.90
2977;DHT22;1498;51.500;7.440;2023-01-26T07:32:36;2.80;99.90
2977;DHT22;1498;51.500;7.440;2023-01-26T07:35:02;2.80;99.90
2977;DHT22;1498;51.500;7.440;2023-01-26T07:37:28;2.90;99.90
2977;DHT22;1498;51.500;7.440;2023-01-26T07:39:54;2.90;99.90
2977;DHT22;1498;51.500;7.440;2023-01-26T07:42:20;2.80;99.90
2977;DHT22;1498;51.500;7.440;2023-01-26T07:44:45;2.80;99.90
2977;DHT22;1498;51.500;7.440;2023-01-26T07:47:11;2.90;99.90
2977;DHT22;1498;51.500;7.440;2023-01-26T07:49:36;2.90;99.90
2977;DHT22;1498;51.500;7.440;2023-01-26T07:52:03;2.80;99.90
2977;DHT22;1498;51.500;7.440;2023-01-26T07:54:28;2.80;99.90
2977;DHT22;1498;51.500;7.440;2023-01-26T07:56:54;2.80;99.90
2977;DHT22;1498;51.500;7.440;2023-01-26T07:59:20;2.90;99.90
2977;DHT22;1498;51.500;7.440;2023-01-26T08:01:48;2.90;99.90
2977;DHT22;1498;51.500;7.440;2023-01-26T08:04:14;2.90;99.90
2977;DHT22;1498;51.500;7.440;2023-01-26T08:06:40;2.90;99.90
2977;DHT22;1498;51.500;7.440;2023-01-26T08:09:05;2.90;99.90
2977;DHT22;1498;51.500;7.440;2023-01-26T08:11:31;2.90;99.90
2977;DHT22;1498;51.500;7.440;2023-01-26T08:13:57;2.90;99.90
2977;DHT22;1498;51.500;7.440;2023-01-26T08:16:22;2.90;99.90
2977;DHT22;1498;51.500;7.440;2023-01-26T08:18:48;2.90;99.90
2977;DHT22;1498;51.500;7.440;2023-01-26T08:21:15;2.90;99.90
2977;DHT22;1498;51.500;7.440;2023-01-26T08:23:41;2.90;99.90
2977;DHT22;1498;51.500;7.440;2023-01-26T08:26:09;2.90;99.90
2977;DHT22;1498;51.500;7.440;2023-01-26T08:28:35;2.90;99.90
2977;DHT22;1498;51.500;7.440;2023-01-26T08:31:06;2.90;99.90
2977;DHT22;1498;51.500;7.440;2023-01-26T08:33:33;2.90;99.90
2977;DHT22;1498;51.500;7.440;2023-01-26T08:36:03;2.90;99.90
2977;DHT22;1498;51.500;7.440;2023-01-26T08:38:30;2.90;99.90
2977;DHT22;1498;51.500;7.440;2023-01-26T08:40:57;3.00;99.90
2977;DHT22;1498;51.500;7.440;2023-01-26T08:43:22;3.00;99.90
2977;DHT22;1498;51.500;7.440;2023-01-26T08:45:48;3.00;99.90
2977;DHT22;1498;51.500;7.440;2023-01-26T08:48:13;3.00;99.90
2977;DHT22;1498;51.500;7.440;2023-01-26T08:50:39;3.00;99.90
2977;DHT22;1498;51.500;7.440;2023-01-26T08:53:04;3.00;99.90
2977;DHT22;1498;51.500;7.440;2023-01-26T08:55:30;3.10;99.90
2977;DHT22;1498;51.500;7.440;2023-01-26T08:57:57;3.10;99.90
2977;DHT22;1498;51.500;7.440;2023-01-26T09:00:23;3.10;99.90
2977;DHT22;1498;51.500;7.440;2023-01-26T09:02:50;3.10;99.90
2977;DHT22;1498;51.500;7.440;2023-01-26T09:05:22;3.10;99.90
2977;DHT22;1498;51.500;7.440;2023-01-26T09:07:47;3.10;99.90
2977;DHT22;1498;51.500;7.440;2023-01-26T09:10:13;3.20;99.90
2977;DHT22;1498;51.500;7.440;2023-01-26T09:12:38;3.10;99.90
2977;DHT22;1498;51.500;7.440;2023-01-26T09:15:05;3.20;99.90
2977;DHT22;1498;51.500;7.440;2023-01-26T09:17:30;3.20;99.90
2977;DHT22;1498;51.500;7.440;2023-01-26T09:19:56;3.20;99.90
2977;DHT22;1498;51.500;7.440;2023-01-26T09:22:21;3.20;99.90
2977;DHT22;1498;51.500;7.440;2023-01-26T09:24:47;3.20;99.90
2977;DHT22;1498;51.500;7.440;2023-01-26T09:27:12;3.20;99.90
2977;DHT22;1498;51.500;7.440;2023-01-26T09:29:38;3.30;99.90
2977;DHT22;1498;51.500;7.440;2023-01-26T09:32:04;3.20;99.90
2977;DHT22;1498;51.500;7.440;2023-01-26T09:34:30;3.20;99.90
2977;DHT22;1498;51.500;7.440;2023-01-26T09:36:55;3.30;99.90
2977;DHT22;1498;51.500;7.440;2023-01-26T09:39:22;3.30;99.90
2977;DHT22;1498;51.500;7.440;2023-01-26T09:41:54;3.30;99.90
2977;DHT22;1498;51.500;7.440;2023-01-26T09:44:25;3.30;99.90
2977;DHT22;1498;51.500;7.440;2023-01-26T09:49:58;3.30;99.90
2977;DHT22;1498;51.500;7.440;2023-01-26T09:52:30;3.40;99.90
2977;DHT22;1498;51.500;7.440;2023-01-26T09:54:58;3.40;99.90
2977;DHT22;1498;51.500;7.440;2023-01-26T09:57:31;3.40;99.90
2977;DHT22;1498;51.500;7.440;2023-01-26T10:02:55;3.40;99.90
2977;DHT22;1498;51.500;7.440;2023-01-26T10:08:15;3.40;99.90
2977;DHT22;1498;51.500;7.440;2023-01-26T10:10:48;3.40;99.90
2977;DHT22;1498;51.500;7.440;2023-01-26T10:13:15;3.40;99.90
2977;DHT22;1498;51.500;7.440;2023-01-26T10:15:44;3.40;99.90
2977;DHT22;1498;51.500;7.440;2023-01-26T10:18:35;3.40;99.90
2977;DHT22;1498;51.500;7.440;2023-01-26T10:21:03;3.40;99.90
2977;DHT22;1498;51.500;7.440;2023-01-26T10:23:32;3.40;99.90
2977;DHT22;1498;51.500;7.440;2023-01-26T10:28:37;3.50;99.90
2977;DHT22;1498;51.500;7.440;2023-01-26T10:31:07;3.50;99.90
2977;DHT22;1498;51.500;7.440;2023-01-26T10:33:37;3.50;99.90
2977;DHT22;1498;51.500;7.440;2023-01-26T10:36:06;3.50;99.90
2977;DHT22;1498;51.500;7.440;2023-01-26T10:41:02;3.50;99.90
2977;DHT22;1498;51.500;7.440;2023-01-26T10:43:28;3.50;99.90
2977;DHT22;1498;51.500;7.440;2023-01-26T10:45:55;3.50;99.90
2977;DHT22;1498;51.500;7.440;2023-01-26T10:48:23;3.50;99.90
2977;DHT22;1498;51.500;7.440;2023-01-26T10:50:51;3.50;99.90
2977;DHT22;1498;51.500;7.440;2023-01-26T10:53:22;3.50;99.90
2977;DHT22;1498;51.500;7.440;2023-01-26T10:56:03;3.50;99.90
2977;DHT22;1498;51.500;7.440;2023-01-26T10:58:51;3.50;99.90
2977;DHT22;1498;51.500;7.440;2023-01-26T11:01:19;3.50;99.90
2977;DHT22;1498;51.500;7.440;2023-01-26T11:04:06;3.50;99.90
2977;DHT22;1498;51.500;7.440;2023-01-26T11:06:34;3.60;99.90
2977;DHT22;1498;51.500;7.440;2023-01-26T11:09:09;3.70;99.90
2977;DHT22;1498;51.500;7.440;2023-01-26T11:11:36;4.10;99.90
2977;DHT22;1498;51.500;7.440;2023-01-26T11:14:18;4.10;99.90
2977;DHT22;1498;51.500;7.440;2023-01-26T11:16:52;4.00;99.90
2977;DHT22;1498;51.500;7.440;2023-01-26T11:19:49;3.90;99.90
2977;DHT22;1498;51.500;7.440;2023-01-26T11:22:36;3.90;99.90
2977;DHT22;1498;51.500;7.440;2023-01-26T11:27:49;3.90;99.90
2977;DHT22;1498;51.500;7.440;2023-01-26T11:30:35;3.90;99.90
2977;DHT22;1498;51.500;7.440;2023-01-26T11:38:42;3.90;99.90
2977;DHT22;1498;51.500;7.440;2023-01-26T11:44:29;3.90;99.90
2977;DHT22;1498;51.500;7.440;2023-01-26T11:47:12;4.00;99.90
2977;DHT22;1498;51.500;7.440;2023-01-26T11:52:50;4.00;99.90
2977;DHT22;1498;51.500;7.440;2023-01-26T11:58:23;4.00;99.90
2977;DHT22;1498;51.500;7.440;2023-01-26T12:00:55;4.10;99.90
2977;DHT22;1498;51.500;7.440;2023-01-26T12:03:44;4.20;99.90
2977;DHT22;1498;51.500;7.440;2023-01-26T12:06:39;4.30;99.90
2977;DHT22;1498;51.500;7.440;2023-01-26T12:09:23;4.30;99.90
2977;DHT22;1498;51.500;7.440;2023-01-26T12:14:56;4.40;99.90
2977;DHT22;1498;51.500;7.440;2023-01-26T12:17:42;4.40;99.90
2977;DHT22;1498;51.500;7.440;2023-01-26T12:25:29;4.40;99.90
2977;DHT22;1498;51.500;7.440;2023-01-26T12:27:57;4.40;99.90
2977;DHT22;1498;51.500;7.440;2023-01-26T12:30:36;4.30;99.90
2977;DHT22;1498;51.500;7.440;2023-01-26T12:33:06;4.40;99.90
2977;DHT22;1498;51.500;7.440;2023-01-26T12:41:45;4.40;99.90
2977;DHT22;1498;51.500;7.440;2023-01-26T12:46:52;4.40;99.90
2977;DHT22;1498;51.500;7.440;2023-01-26T12:52:16;4.40;99.90
2977;DHT22;1498;51.500;7.440;2023-01-26T12:55:20;4.40;99.90
2977;DHT22;1498;51.500;7.440;2023-01-26T12:58:02;4.40;99.90
2977;DHT22;1498;51.500;7.440;2023-01-26T13:00:32;4.40;99.90
2977;DHT22;1498;51.500;7.440;2023-01-26T13:03:14;4.40;99.90
2977;DHT22;1498;51.500;7.440;2023-01-26T13:10:55;4.40;99.90
2977;DHT22;1498;51.500;7.440;2023-01-26T13:13:30;4.40;99.90
2977;DHT22;1498;51.500;7.440;2023-01-26T13:16:29;4.40;99.90
2977;DHT22;1498;51.500;7.440;2023-01-26T13:18:57;4.40;99.90
2977;DHT22;1498;51.500;7.440;2023-01-26T13:21:42;4.40;99.90
2977;DHT22;1498;51.500;7.440;2023-01-26T13:26:47;4.50;99.90
2977;DHT22;1498;51.500;7.440;2023-01-26T13:29:32;4.50;99.90
2977;DHT22;1498;51.500;7.440;2023-01-26T13:34:42;4.60;99.90
2977;DHT22;1498;51.500;7.440;2023-01-26T13:40:21;4.60;99.90
2977;DHT22;1498;51.500;7.440;2023-01-26T13:42:56;4.60;99.90
2977;DHT22;1498;51.500;7.440;2023-01-26T13:45:42;4.60;99.90
2977;DHT22;1498;51.500;7.440;2023-01-26T13:48:14;4.60;99.90
2977;DHT22;1498;51.500;7.440;2023-01-26T13:50:40;4.70;99.90
2977;DHT22;1498;51.500;7.440;2023-01-26T13:53:34;4.60;99.90
2977;DHT22;1498;51.500;7.440;2023-01-26T13:56:01;4.70;99.90
2977;DHT22;1498;51.500;7.440;2023-01-26T13:58:27;4.70;99.90
2977;DHT22;1498;51.500;7.440;2023-01-26T14:01:01;4.70;99.90
2977;DHT22;1498;51.500;7.440;2023-01-26T14:03:27;4.70;99.90
2977;DHT22;1498;51.500;7.440;2023-01-26T14:06:18;4.70;99.90
2977;DHT22;1498;51.500;7.440;2023-01-26T14:08:55;4.70;99.90
2977;DHT22;1498;51.500;7.440;2023-01-26T14:11:24;4.70;99.90
2977;DHT22;1498;51.500;7.440;2023-01-26T14:13:57;4.70;99.90
2977;DHT22;1498;51.500;7.440;2023-01-26T14:16:35;4.70;99.90
2977;DHT22;1498;51.500;7.440;2023-01-26T14:19:13;4.60;99.90
2977;DHT22;1498;51.500;7.440;2023-01-26T14:21:57;4.60;99.90
2977;DHT22;1498;51.500;7.440;2023-01-26T14:24:31;4.60;99.90
2977;DHT22;1498;51.500;7.440;2023-01-26T14:26:57;4.60;99.90
2977;DHT22;1498;51.500;7.440;2023-01-26T14:29:25;4.60;99.90
2977;DHT22;1498;51.500;7.440;2023-01-26T14:31:53;4.60;99.90
2977;DHT22;1498;51.500;7.440;2023-01-26T14:34:22;4.70;99.90
2977;DHT22;1498;51.500;7.440;2023-01-26T14:37:07;4.70;99.90
2977;DHT22;1498;51.500;7.440;2023-01-26T14:39:36;4.70;99.90
2977;DHT22;1498;51.500;7.440;2023-01-26T14:42:02;4.70;99.90
2977;DHT22;1498;51.500;7.440;2023-01-26T14:44:28;4.70;99.90
2977;DHT22;1498;51.500;7.440;2023-01-26T14:47:14;4.70;99.90
2977;DHT22;1498;51.500;7.440;2023-01-26T14:50:00;4.70;99.90
2977;DHT22;1498;51.500;7.440;2023-01-26T14:52:33;4.60;99.90
2977;DHT22;1498;51.500;7.440;2023-01-26T14:55:27;4.80;99.90
2977;DHT22;1498;51.500;7.440;2023-01-26T14:57:53;4.70;99.90
2977;DHT22;1498;51.500;7.440;2023-01-26T15:00:26;4.60;99.90
2977;DHT22;1498;51.500;7.440;2023-01-26T15:02:54;4.60;99.90
2977;DHT22;1498;51.500;7.440;2023-01-26T15:05:23;4.60;99.90
2977;DHT22;1498;51.500;7.440;2023-01-26T15:07:59;4.70;99.90
2977;DHT22;1498;51.500;7.440;2023-01-26T15:10:32;4.70;99.90
2977;DHT22;1498;51.500;7.440;2023-01-26T15:13:22;4.70;99.90
2977;DHT22;1498;51.500;7.440;2023-01-26T15:16:04;4.70;99.90
2977;DHT22;1498;51.500;7.440;2023-01-26T15:18:31;4.70;99.90
2977;DHT22;1498;51.500;7.440;2023-01-26T15:21:00;4.80;99.90
2977;DHT22;1498;51.500;7.440;2023-01-26T15:23:36;4.80;99.90
2977;DHT22;1498;51.500;7.440;2023-01-26T15:26:07;4.70;99.90
2977;DHT22;1498;51.500;7.440;2023-01-26T15:28:33;4.80;99.90
2977;DHT22;1498;51.500;7.440;2023-01-26T15:31:00;4.80;99.90
2977;DHT22;1498;51.500;7.440;2023-01-26T15:33:45;4.80;99.90
2977;DHT22;1498;51.500;7.440;2023-01-26T15:36:29;4.90;99.90
2977;DHT22;1498;51.500;7.440;2023-01-26T15:39:13;4.90;99.90
2977;DHT22;1498;51.500;7.440;2023-01-26T15:41:41;5.00;99.90
2977;DHT22;1498;51.500;7.440;2023-01-26T15:44:18;5.00;99.90
2977;DHT22;1498;51.500;7.440;2023-01-26T15:46:43;5.00;99.90
2977;DHT22;1498;51.500;7.440;2023-01-26T15:49:09;5.00;99.90
2977;DHT22;1498;51.500;7.440;2023-01-26T15:51:36;5.00;99.90
2977;DHT22;1498;51.500;7.440;2023-01-26T15:54:02;5.00;99.90
2977;DHT22;1498;51.500;7.440;2023-01-26T15:56:27;4.90;99.90
2977;DHT22;1498;51.500;7.440;2023-01-26T15:58:53;4.90;99.90
2977;DHT22;1498;51.500;7.440;2023-01-26T16:01:22;4.90;99.90
2977;DHT22;1498;51.500;7.440;2023-01-26T16:03:49;4.80;99.90
2977;DHT22;1498;51.500;7.440;2023-01-26T16:06:22;4.80;99.90
2977;DHT22;1498;51.500;7.440;2023-01-26T16:08:48;4.80;99.90
2977;DHT22;1498;51.500;7.440;2023-01-26T16:11:16;4.80;99.90
2977;DHT22;1498;51.500;7.440;2023-01-26T16:13:42;4.80;99.90
2977;DHT22;1498;51.500;7.440;2023-01-26T16:16:13;4.80;99.90
2977;DHT22;1498;51.500;7.440;2023-01-26T16:18:40;4.80;99.90
2977;DHT22;1498;51.500;7.440;2023-01-26T16:21:20;4.80;99.90
2977;DHT22;1498;51.500;7.440;2023-01-26T16:23:46;4.80;99.90
2977;DHT22;1498;51.500;7.440;2023-01-26T16:26:15;4.80;99.90
2977;DHT22;1498;51.500;7.440;2023-01-26T16:28:41;4.70;99.90
2977;DHT22;1498;51.500;7.440;2023-01-26T16:31:13;4.70;99.90
2977;DHT22;1498;51.500;7.440;2023-01-26T16:33:38;4.70;99.90
2977;DHT22;1498;51.500;7.440;2023-01-26T16:36:04;4.70;99.90
2977;DHT22;1498;51.500;7.440;2023-01-26T16:38:30;4.70;99.90
2977;DHT22;1498;51.500;7.440;2023-01-26T16:40:55;4.70;99.90
2977;DHT22;1498;51.500;7.440;2023-01-26T16:43:23;4.80;99.90
2977;DHT22;1498;51.500;7.440;2023-01-26T16:45:50;4.80;99.90
2977;DHT22;1498;51.500;7.440;2023-01-26T16:48:15;4.80;99.90
2977;DHT22;1498;51.500;7.440;2023-01-26T16:50:42;4.80;99.90
2977;DHT22;1498;51.500;7.440;2023-01-26T16:53:22;4.80;99.90
2977;DHT22;1498;51.500;7.440;2023-01-26T16:55:49;4.80;99.90
2977;DHT22;1498;51.500;7.440;2023-01-26T16:58:15;4.80;99.90
2977;DHT22;1498;51.500;7.440;2023-01-26T17:00:41;4.80;99.90
2977;DHT22;1498;51.500;7.440;2023-01-26T17:03:09;4.80;99.90
2977;DHT22;1498;51.500;7.440;2023-01-26T17:05:36;4.80;99.90
2977;DHT22;1498;51.500;7.440;2023-01-26T17:08:01;4.80;99.90
2977;DHT22;1498;51.500;7.440;2023-01-26T17:10:27;4.80;99.90
2977;DHT22;1498;51.500;7.440;2023-01-26T17:12:52;4.80;99.90
2977;DHT22;1498;51.500;7.440;2023-01-26T17:15:18;4.80;99.90
2977;DHT22;1498;51.500;7.440;2023-01-26T17:17:44;4.80;99.90
2977;DHT22;1498;51.500;7.440;2023-01-26T17:20:12;4.80;99.90
2977;DHT22;1498;51.500;7.440;2023-01-26T17:22:38;4.90;99.90
2977;DHT22;1498;51.500;7.440;2023-01-26T17:25:04;4.90;99.90
2977;DHT22;1498;51.500;7.440;2023-01-26T17:27:29;4.90;99.90
2977;DHT22;1498;51.500;7.440;2023-01-26T17:29:55;4.90;99.90
2977;DHT22;1498;51.500;7.440;2023-01-26T17:32:22;4.90;99.90
2977;DHT22;1498;51.500;7.440;2023-01-26T17:34:51;4.90;99.90
2977;DHT22;1498;51.500;7.440;2023-01-26T17:37:17;4.90;99.90
2977;DHT22;1498;51.500;7.440;2023-01-26T17:39:43;5.00;99.90
2977;DHT22;1498;51.500;7.440;2023-01-26T17:42:09;5.00;99.90
2977;DHT22;1498;51.500;7.440;2023-01-26T17:44:34;5.00;99.90
2977;DHT22;1498;51.500;7.440;2023-01-26T17:47:00;5.00;99.90
2977;DHT22;1498;51.500;7.440;2023-01-26T17:49:25;5.00;99.90
2977;DHT22;1498;51.500;7.440;2023-01-26T17:51:51;5.00;99.90
2977;DHT22;1498;51.500;7.440;2023-01-26T17:54:16;5.00;99.90
2977;DHT22;1498;51.500;7.440;2023-01-26T17:56:42;5.00;99.90
2977;DHT22;1498;51.500;7.440;2023-01-26T17:59:07;5.00;99.90
2977;DHT22;1498;51.500;7.440;2023-01-26T18:01:33;5.00;99.90
2977;DHT22;1498;51.500;7.440;2023-01-26T18:03:59;5.00;99.90
2977;DHT22;1498;51.500;7.440;2023-01-26T18:06:26;5.00;99.90
2977;DHT22;1498;51.500;7.440;2023-01-26T18:08:52;5.00;99.90
2977;DHT22;1498;51.500;7.440;2023-01-26T18:11:18;5.00;99.90
2977;DHT22;1498;51.500;7.440;2023-01-26T18:13:44;5.00;99.90
2977;DHT22;1498;51.500;7.440;2023-01-26T18:16:14;5.00;99.90
2977;DHT22;1498;51.500;7.440;2023-01-26T18:18:40;5.00;99.90
2977;DHT22;1498;51.500;7.440;2023-01-26T18:21:18;5.00;99.90
2977;DHT22;1498;51.500;7.440;2023-01-26T18:23:48;5.00;99.90
2977;DHT22;1498;51.500;7.440;2023-01-26T18:26:14;5.00;99.90
2977;DHT22;1498;51.500;7.440;2023-01-26T18:28:41;5.00;99.90
2977;DHT22;1498;51.500;7.440;2023-01-26T18:31:12;5.00;99.90
2977;DHT22;1498;51.500;7.440;2023-01-26T18:33:38;5.10;99.90
2977;DHT22;1498;51.500;7.440;2023-01-26T18:36:09;5.10;99.90
2977;DHT22;1498;51.500;7.440;2023-01-26T18:38:37;5.10;99.90
2977;DHT22;1498;51.500;7.440;2023-01-26T18:41:03;5.10;99.90
2977;DHT22;1498;51.500;7.440;2023-01-26T18:43:28;5.10;99.90
2977;DHT22;1498;51.500;7.440;2023-01-26T18:46:00;5.00;99.90
2977;DHT22;1498;51.500;7.440;2023-01-26T18:48:27;5.10;99.90
2977;DHT22;1498;51.500;7.440;2023-01-26T18:50:53;5.10;99.90
2977;DHT22;1498;51.500;7.440;2023-01-26T18:53:19;5.10;99.90
2977;DHT22;1498;51.500;7.440;2023-01-26T18:55:44;5.00;99.90
2977;DHT22;1498;51.500;7.440;2023-01-26T18:58:10;5.00;99.90
2977;DHT22;1498;51.500;7.440;2023-01-26T19:00:36;5.10;99.90
2977;DHT22;1498;51.500;7.440;2023-01-26T19:03:02;5.20;99.90
2977;DHT22;1498;51.500;7.440;2023-01-26T19:05:29;5.10;99.90
2977;DHT22;1498;51.500;7.440;2023-01-26T19:07:55;5.20;99.90
2977;DHT22;1498;51.500;7.440;2023-01-26T19:10:21;5.10;99.90
2977;DHT22;1498;51.500;7.440;2023-01-26T19:12:49;5.10;99.90
2977;DHT22;1498;51.500;7.440;2023-01-26T19:15:15;5.10;99.90
2977;DHT22;1498;51.500;7.440;2023-01-26T19:17:40;5.10;99.90
2977;DHT22;1498;51.500;7.440;2023-01-26T19:20:10;5.10;99.90
2977;DHT22;1498;51.500;7.440;2023-01-26T19:22:36;5.20;99.90
2977;DHT22;1498;51.500;7.440;2023-01-26T19:25:02;5.10;99.90
2977;DHT22;1498;51.500;7.440;2023-01-26T19:27:29;5.20;99.90
2977;DHT22;1498;51.500;7.440;2023-01-26T19:29:55;5.10;99.90
2977;DHT22;1498;51.500;7.440;2023-01-26T19:32:21;5.10;99.90
2977;DHT22;1498;51.500;7.440;2023-01-26T19:34:46;5.10;99.90
2977;DHT22;1498;51.500;7.440;2023-01-26T19:37:12;5.10;99.90
2977;DHT22;1498;51.500;7.440;2023-01-26T19:39:37;5.20;99.90